sensor_id;sensor_type;location;lat;lon;timestamp;temperature;humidity
18085;DHT22;9169;44.492;11.372;2023-02-28T00:01:44;9.40;53.60
18085;DHT22;9169;44.492;11.372;2023-02-28T00:04:14;9.40;53.60
18085;DHT22;9169;44.492;11.372;2023-02-28T00:06:42;9.50;53.70
18085;DHT22;9169;44.492;11.372;2023-02-28T00:09:11;9.50;53.80
18085;DHT22;9169;44.492;11.372;2023-02-28T00:11:39;9.50;53.70
18085;DHT22;9169;44.492;11.372;2023-02-28T00:14:08;9.60;53.70
18085;DHT22;9169;44.492;11.372;2023-02-28T00:16:36;9.60;53.70
18085;DHT22;9169;44.492;11.372;2023-02-28T00:19:05;9.60;53.70
18085;DHT22;9169;44.492;11.372;2023-02-28T00:21:35;9.60;53.70
18085;DHT22;9169;44.492;11.372;2023-02-28T00:24:04;9.60;54.20
18085;DHT22;9169;44.492;11.372;2023-02-28T00:26:33;9.60;53.60
18085;DHT22;9169;44.492;11.372;2023-02-28T00:29:01;9.60;53.60
18085;DHT22;9169;44.492;11.372;2023-02-28T00:31:30;9.60;53.50
18085;DHT22;9169;44.492;11.372;2023-02-28T00:33:58;9.50;53.40
18085;DHT22;9169;44.492;11.372;2023-02-28T00:36:26;9.50;53.50
18085;DHT22;9169;44.492;11.372;2023-02-28T00:38:57;9.50;53.50
18085;DHT22;9169;44.492;11.372;2023-02-28T00:41:27;9.50;53.40
18085;DHT22;9169;44.492;11.372;2023-02-28T00:43:56;9.50;53.40
18085;DHT22;9169;44.492;11.372;2023-02-28T00:46:24;9.50;53.30
18085;DHT22;9169;44.492;11.372;2023-02-28T00:48:53;9.50;53.30
18085;DHT22;9169;44.492;11.372;2023-02-28T00:51:21;9.50;53.20
18085;DHT22;9169;44.492;11.372;2023-02-28T00:53:50;9.40;53.10
18085;DHT22;9169;44.492;11.372;2023-02-28T00:56:20;9.40;53.10
18085;DHT22;9169;44.492;11.372;2023-02-28T00:58:48;9.30;53.60
18085;DHT22;9169;44.492;11.372;2023-02-28T01:01:19;9.30;53.70
18085;DHT22;9169;44.492;11.372;2023-02-28T01:03:47;9.30;53.20
18085;DHT22;9169;44.492;11.372;2023-02-28T01:06:15;9.30;53.20
18085;DHT22;9169;44.492;11.372;2023-02-28T01:08:43;9.30;53.10
18085;DHT22;9169;44.492;11.372;2023-02-28T01:11:14;9.30;53.00
18085;DHT22;9169;44.492;11.372;2023-02-28T01:13:45;9.30;52.90
18085;DHT22;9169;44.492;11.372;2023-02-28T01:16:14;9.30;53.00
18085;DHT22;9169;44.492;11.372;2023-02-28T01:18:43;9.30;53.00
18085;DHT22;9169;44.492;11.372;2023-02-28T01:21:13;9.30;53.00
18085;DHT22;9169;44.492;11.372;2023-02-28T01:23:42;9.30;53.60
18085;DHT22;9169;44.492;11.372;2023-02-28T01:26:13;9.30;53.10
18085;DHT22;9169;44.492;11.372;2023-02-28T01:28:42;9.20;53.00
18085;DHT22;9169;44.492;11.372;2023-02-28T01:31:12;9.20;52.90
18085;DHT22;9169;44.492;11.372;2023-02-28T01:33:41;9.20;52.80
18085;DHT22;9169;44.492;11.372;2023-02-28T01:36:13;9.20;52.80
18085;DHT22;9169;44.492;11.372;2023-02-28T01:38:42;9.20;52.70
18085;DHT22;9169;44.492;11.372;2023-02-28T01:41:15;9.20;52.70
18085;DHT22;9169;44.492;11.372;2023-02-28T01:43:59;9.20;52.60
18085;DHT22;9169;44.492;11.372;2023-02-28T01:46:33;9.20;52.50
18085;DHT22;9169;44.492;11.372;2023-02-28T01:49:06;9.20;52.30
18085;DHT22;9169;44.492;11.372;2023-02-28T01:51:40;9.20;52.10
18085;DHT22;9169;44.492;11.372;2023-02-28T01:54:14;9.10;51.90
18085;DHT22;9169;44.492;11.372;2023-02-28T01:56:48;9.10;51.90
18085;DHT22;9169;44.492;11.372;2023-02-28T01:59:23;9.10;51.90
18085;DHT22;9169;44.492;11.372;2023-02-28T02:01:56;9.00;52.00
18085;DHT22;9169;44.492;11.372;2023-02-28T02:04:27;9.00;52.10
18085;DHT22;9169;44.492;11.372;2023-02-28T02:06:59;9.10;52.20
18085;DHT22;9169;44.492;11.372;2023-02-28T02:09:27;9.10;52.20
18085;DHT22;9169;44.492;11.372;2023-02-28T02:11:56;9.10;52.10
18085;DHT22;9169;44.492;11.372;2023-02-28T02:14:40;9.10;52.10
18085;DHT22;9169;44.492;11.372;2023-02-28T02:17:19;9.10;52.20
18085;DHT22;9169;44.492;11.372;2023-02-28T02:20:16;9.10;52.10
18085;DHT22;9169;44.492;11.372;2023-02-28T02:29:36;9.10;51.80
18085;DHT22;9169;44.492;11.372;2023-02-28T02:32:27;9.10;51.80
18085;DHT22;9169;44.492;11.372;2023-02-28T02:35:02;9.10;51.80
18085;DHT22;9169;44.492;11.372;2023-02-28T02:37:40;9.10;51.90
18085;DHT22;9169;44.492;11.372;2023-02-28T02:40:13;9.10;51.90
18085;DHT22;9169;44.492;11.372;2023-02-28T02:42:47;9.10;51.60
18085;DHT22;9169;44.492;11.372;2023-02-28T02:45:22;9.00;51.40
18085;DHT22;9169;44.492;11.372;2023-02-28T02:47:53;9.00;51.40
18085;DHT22;9169;44.492;11.372;2023-02-28T02:50:29;9.00;51.40
18085;DHT22;9169;44.492;11.372;2023-02-28T02:53:01;8.90;51.30
18085;DHT22;9169;44.492;11.372;2023-02-28T02:55:34;8.90;51.20
18085;DHT22;9169;44.492;11.372;2023-02-28T02:58:08;8.90;51.20
18085;DHT22;9169;44.492;11.372;2023-02-28T03:00:42;8.80;51.10
18085;DHT22;9169;44.492;11.372;2023-02-28T03:03:12;8.70;51.00
18085;DHT22;9169;44.492;11.372;2023-02-28T03:05:45;8.70;51.10
18085;DHT22;9169;44.492;11.372;2023-02-28T03:08:15;8.70;51.10
18085;DHT22;9169;44.492;11.372;2023-02-28T03:10:46;8.60;51.20
18085;DHT22;9169;44.492;11.372;2023-02-28T03:13:48;8.60;51.30
18085;DHT22;9169;44.492;11.372;2023-02-28T03:16:36;8.60;51.30
18085;DHT22;9169;44.492;11.372;2023-02-28T03:19:30;8.60;51.40
18085;DHT22;9169;44.492;11.372;2023-02-28T03:22:14;8.60;51.40
18085;DHT22;9169;44.492;11.372;2023-02-28T03:24:50;8.60;51.30
18085;DHT22;9169;44.492;11.372;2023-02-28T03:27:26;8.50;51.30
18085;DHT22;9169;44.492;11.372;2023-02-28T03:30:00;8.50;51.40
18085;DHT22;9169;44.492;11.372;2023-02-28T03:32:33;8.50;51.50
18085;DHT22;9169;44.492;11.372;2023-02-28T03:35:07;8.50;51.50
18085;DHT22;9169;44.492;11.372;2023-02-28T03:37:40;8.60;51.60
18085;DHT22;9169;44.492;11.372;2023-02-28T03:40:13;8.60;51.60
18085;DHT22;9169;44.492;11.372;2023-02-28T03:42:45;8.60;51.60
18085;DHT22;9169;44.492;11.372;2023-02-28T03:45:17;8.60;51.60
18085;DHT22;9169;44.492;11.372;2023-02-28T03:47:50;8.50;51.50
18085;DHT22;9169;44.492;11.372;2023-02-28T03:50:21;8.50;51.50
18085;DHT22;9169;44.492;11.372;2023-02-28T03:52:56;8.50;51.60
18085;DHT22;9169;44.492;11.372;2023-02-28T03:55:32;8.50;51.70
18085;DHT22;9169;44.492;11.372;2023-02-28T03:58:05;8.50;51.60
18085;DHT22;9169;44.492;11.372;2023-02-28T04:00:38;8.50;51.60
18085;DHT22;9169;44.492;11.372;2023-02-28T04:03:07;8.50;51.60
18085;DHT22;9169;44.492;11.372;2023-02-28T04:05:46;8.50;51.60
18085;DHT22;9169;44.492;11.372;2023-02-28T04:08:18;8.50;51.40
18085;DHT22;9169;44.492;11.372;2023-02-28T04:10:52;8.50;51.40
18085;DHT22;9169;44.492;11.372;2023-02-28T04:13:22;8.50;51.50
18085;DHT22;9169;44.492;11.372;2023-02-28T04:15:50;8.50;51.30
18085;DHT22;9169;44.492;11.372;2023-02-28T04:18:19;8.40;51.20
18085;DHT22;9169;44.492;11.372;2023-02-28T04:20:47;8.40;51.40
18085;DHT22;9169;44.492;11.372;2023-02-28T04:23:15;8.40;51.50
18085;DHT22;9169;44.492;11.372;2023-02-28T04:25:45;8.40;51.60
18085;DHT22;9169;44.492;11.372;2023-02-28T04:28:14;8.30;51.50
18085;DHT22;9169;44.492;11.372;2023-02-28T04:30:42;8.40;51.70
18085;DHT22;9169;44.492;11.372;2023-02-28T04:33:11;8.40;51.80
18085;DHT22;9169;44.492;11.372;2023-02-28T04:35:39;8.40;51.80
18085;DHT22;9169;44.492;11.372;2023-02-28T04:38:07;8.40;51.80
18085;DHT22;9169;44.492;11.372;2023-02-28T04:40:36;8.40;51.70
18085;DHT22;9169;44.492;11.372;2023-02-28T04:43:06;8.30;51.50
18085;DHT22;9169;44.492;11.372;2023-02-28T04:45:35;8.30;51.50
18085;DHT22;9169;44.492;11.372;2023-02-28T04:48:03;8.30;51.60
18085;DHT22;9169;44.492;11.372;2023-02-28T04:50:32;8.30;51.60
18085;DHT22;9169;44.492;11.372;2023-02-28T04:53:01;8.30;51.70
18085;DHT22;9169;44.492;11.372;2023-02-28T04:55:29;8.30;51.80
18085;DHT22;9169;44.492;11.372;2023-02-28T04:57:58;8.30;51.80
18085;DHT22;9169;44.492;11.372;2023-02-28T05:00:27;8.30;51.80
18085;DHT22;9169;44.492;11.372;2023-02-28T05:02:56;8.30;51.80
18085;DHT22;9169;44.492;11.372;2023-02-28T05:05:24;8.20;51.60
18085;DHT22;9169;44.492;11.372;2023-02-28T05:07:53;8.20;51.60
18085;DHT22;9169;44.492;11.372;2023-02-28T05:10:22;8.20;51.60
18085;DHT22;9169;44.492;11.372;2023-02-28T05:12:51;8.20;51.70
18085;DHT22;9169;44.492;11.372;2023-02-28T05:15:19;8.10;51.60
18085;DHT22;9169;44.492;11.372;2023-02-28T05:17:49;8.10;51.60
18085;DHT22;9169;44.492;11.372;2023-02-28T05:20:18;8.10;51.70
18085;DHT22;9169;44.492;11.372;2023-02-28T05:22:49;8.10;51.80
18085;DHT22;9169;44.492;11.372;2023-02-28T05:25:19;8.10;51.90
18085;DHT22;9169;44.492;11.372;2023-02-28T05:27:49;8.20;52.10
18085;DHT22;9169;44.492;11.372;2023-02-28T05:30:18;8.20;52.10
18085;DHT22;9169;44.492;11.372;2023-02-28T05:32:51;8.20;52.00
18085;DHT22;9169;44.492;11.372;2023-02-28T05:35:19;8.20;52.10
18085;DHT22;9169;44.492;11.372;2023-02-28T05:37:48;8.30;52.20
18085;DHT22;9169;44.492;11.372;2023-02-28T05:40:17;8.30;52.10
18085;DHT22;9169;44.492;11.372;2023-02-28T05:42:48;8.30;52.60
18085;DHT22;9169;44.492;11.372;2023-02-28T05:45:18;8.30;52.00
18085;DHT22;9169;44.492;11.372;2023-02-28T05:47:46;8.30;52.10
18085;DHT22;9169;44.492;11.372;2023-02-28T05:50:16;8.30;52.10
18085;DHT22;9169;44.492;11.372;2023-02-28T05:52:48;8.30;52.00
18085;DHT22;9169;44.492;11.372;2023-02-28T05:55:17;8.30;52.00
18085;DHT22;9169;44.492;11.372;2023-02-28T05:57:45;8.20;52.00
18085;DHT22;9169;44.492;11.372;2023-02-28T06:00:14;8.10;52.00
18085;DHT22;9169;44.492;11.372;2023-02-28T06:02:44;8.10;52.20
18085;DHT22;9169;44.492;11.372;2023-02-28T06:05:16;8.00;52.30
18085;DHT22;9169;44.492;11.372;2023-02-28T06:07:45;8.00;52.40
18085;DHT22;9169;44.492;11.372;2023-02-28T06:10:14;8.00;52.60
18085;DHT22;9169;44.492;11.372;2023-02-28T06:12:42;8.00;52.80
18085;DHT22;9169;44.492;11.372;2023-02-28T06:15:13;8.00;52.90
18085;DHT22;9169;44.492;11.372;2023-02-28T06:17:42;8.00;52.90
18085;DHT22;9169;44.492;11.372;2023-02-28T06:20:11;8.00;53.20
18085;DHT22;9169;44.492;11.372;2023-02-28T06:22:41;8.00;53.30
18085;DHT22;9169;44.492;11.372;2023-02-28T06:25:10;7.90;53.20
18085;DHT22;9169;44.492;11.372;2023-02-28T06:27:39;7.90;53.30
18085;DHT22;9169;44.492;11.372;2023-02-28T06:30:08;8.00;53.50
18085;DHT22;9169;44.492;11.372;2023-02-28T06:32:37;8.00;53.60
18085;DHT22;9169;44.492;11.372;2023-02-28T06:35:07;8.10;53.80
18085;DHT22;9169;44.492;11.372;2023-02-28T06:37:35;8.10;53.90
18085;DHT22;9169;44.492;11.372;2023-02-28T06:40:09;8.00;53.90
18085;DHT22;9169;44.492;11.372;2023-02-28T06:42:38;8.00;54.00
18085;DHT22;9169;44.492;11.372;2023-02-28T06:45:07;7.90;54.00
18085;DHT22;9169;44.492;11.372;2023-02-28T06:47:37;7.90;54.10
18085;DHT22;9169;44.492;11.372;2023-02-28T06:50:08;7.90;54.20
18085;DHT22;9169;44.492;11.372;2023-02-28T06:52:36;7.90;54.30
18085;DHT22;9169;44.492;11.372;2023-02-28T06:55:08;7.80;54.20
18085;DHT22;9169;44.492;11.372;2023-02-28T06:57:37;7.90;54.50
18085;DHT22;9169;44.492;11.372;2023-02-28T07:00:10;7.90;54.70
18085;DHT22;9169;44.492;11.372;2023-02-28T07:02:39;7.90;54.90
18085;DHT22;9169;44.492;11.372;2023-02-28T07:05:08;7.90;54.90
18085;DHT22;9169;44.492;11.372;2023-02-28T07:07:36;7.90;54.90
18085;DHT22;9169;44.492;11.372;2023-02-28T07:10:10;7.90;54.80
18085;DHT22;9169;44.492;11.372;2023-02-28T07:12:39;7.90;54.90
18085;DHT22;9169;44.492;11.372;2023-02-28T07:15:09;7.80;55.00
18085;DHT22;9169;44.492;11.372;2023-02-28T07:17:37;7.80;55.20
18085;DHT22;9169;44.492;11.372;2023-02-28T07:20:07;7.90;55.30
18085;DHT22;9169;44.492;11.372;2023-02-28T07:22:35;7.90;55.40
18085;DHT22;9169;44.492;11.372;2023-02-28T07:25:04;7.90;55.40
18085;DHT22;9169;44.492;11.372;2023-02-28T07:27:34;7.90;55.50
18085;DHT22;9169;44.492;11.372;2023-02-28T07:30:03;7.90;55.70
18085;DHT22;9169;44.492;11.372;2023-02-28T07:32:32;8.00;55.80
18085;DHT22;9169;44.492;11.372;2023-02-28T07:35:05;8.00;56.40
18085;DHT22;9169;44.492;11.372;2023-02-28T07:37:34;8.10;56.00
18085;DHT22;9169;44.492;11.372;2023-02-28T07:40:04;8.20;56.10
18085;DHT22;9169;44.492;11.372;2023-02-28T07:42:37;8.20;56.10
18085;DHT22;9169;44.492;11.372;2023-02-28T07:45:07;8.20;56.10
18085;DHT22;9169;44.492;11.372;2023-02-28T07:47:38;8.20;56.00
18085;DHT22;9169;44.492;11.372;2023-02-28T07:50:08;8.20;56.00
18085;DHT22;9169;44.492;11.372;2023-02-28T07:52:38;8.30;56.10
18085;DHT22;9169;44.492;11.372;2023-02-28T07:55:08;8.30;56.10
18085;DHT22;9169;44.492;11.372;2023-02-28T07:57:39;8.30;56.10
18085;DHT22;9169;44.492;11.372;2023-02-28T08:00:09;8.40;56.20
18085;DHT22;9169;44.492;11.372;2023-02-28T08:02:40;8.40;56.20
18085;DHT22;9169;44.492;11.372;2023-02-28T08:05:08;8.50;56.20
18085;DHT22;9169;44.492;11.372;2023-02-28T08:07:37;8.50;56.10
18085;DHT22;9169;44.492;11.372;2023-02-28T08:10:07;8.60;56.00
18085;DHT22;9169;44.492;11.372;2023-02-28T08:12:38;8.60;55.80
18085;DHT22;9169;44.492;11.372;2023-02-28T08:15:08;8.60;55.70
18085;DHT22;9169;44.492;11.372;2023-02-28T08:17:36;8.60;55.70
18085;DHT22;9169;44.492;11.372;2023-02-28T08:20:06;8.50;55.50
18085;DHT22;9169;44.492;11.372;2023-02-28T08:22:36;8.50;55.60
18085;DHT22;9169;44.492;11.372;2023-02-28T08:25:05;8.50;55.70
18085;DHT22;9169;44.492;11.372;2023-02-28T08:27:35;8.40;55.70
18085;DHT22;9169;44.492;11.372;2023-02-28T08:30:06;8.50;55.70
18085;DHT22;9169;44.492;11.372;2023-02-28T08:32:35;8.50;55.70
18085;DHT22;9169;44.492;11.372;2023-02-28T08:35:04;8.60;55.70
18085;DHT22;9169;44.492;11.372;2023-02-28T08:37:33;8.50;55.60
18085;DHT22;9169;44.492;11.372;2023-02-28T08:40:01;8.50;55.60
18085;DHT22;9169;44.492;11.372;2023-02-28T08:42:32;8.50;55.60
18085;DHT22;9169;44.492;11.372;2023-02-28T08:45:01;8.60;55.80
18085;DHT22;9169;44.492;11.372;2023-02-28T08:47:30;8.60;55.90
18085;DHT22;9169;44.492;11.372;2023-02-28T08:49:59;8.70;56.00
18085;DHT22;9169;44.492;11.372;2023-02-28T08:52:28;8.80;55.90
18085;DHT22;9169;44.492;11.372;2023-02-28T08:54:56;8.80;55.80
18085;DHT22;9169;44.492;11.372;2023-02-28T08:57:25;8.90;55.80
18085;DHT22;9169;44.492;11.372;2023-02-28T08:59:54;8.90;55.80
18085;DHT22;9169;44.492;11.372;2023-02-28T09:02:22;8.90;55.90
18085;DHT22;9169;44.492;11.372;2023-02-28T09:04:52;9.00;55.90
18085;DHT22;9169;44.492;11.372;2023-02-28T09:07:22;9.10;56.30
18085;DHT22;9169;44.492;11.372;2023-02-28T09:09:51;9.10;55.40
18085;DHT22;9169;44.492;11.372;2023-02-28T09:12:22;9.20;55.40
18085;DHT22;9169;44.492;11.372;2023-02-28T09:14:51;9.20;55.40
18085;DHT22;9169;44.492;11.372;2023-02-28T09:17:20;9.20;55.20
18085;DHT22;9169;44.492;11.372;2023-02-28T09:19:49;9.20;55.00
18085;DHT22;9169;44.492;11.372;2023-02-28T09:22:19;9.20;54.90
18085;DHT22;9169;44.492;11.372;2023-02-28T09:24:48;9.10;55.00
18085;DHT22;9169;44.492;11.372;2023-02-28T09:27:16;9.20;55.20
18085;DHT22;9169;44.492;11.372;2023-02-28T09:29:46;9.30;55.30
18085;DHT22;9169;44.492;11.372;2023-02-28T09:32:15;9.30;55.30
18085;DHT22;9169;44.492;11.372;2023-02-28T09:34:45;9.40;55.30
18085;DHT22;9169;44.492;11.372;2023-02-28T09:37:13;9.50;55.30
18085;DHT22;9169;44.492;11.372;2023-02-28T09:39:43;9.60;55.30
18085;DHT22;9169;44.492;11.372;2023-02-28T09:42:21;9.70;55.30
18085;DHT22;9169;44.492;11.372;2023-02-28T09:44:50;9.70;55.20
18085;DHT22;9169;44.492;11.372;2023-02-28T09:47:27;9.80;55.20
18085;DHT22;9169;44.492;11.372;2023-02-28T09:50:01;9.80;55.00
18085;DHT22;9169;44.492;11.372;2023-02-28T09:52:32;9.80;54.60
18085;DHT22;9169;44.492;11.372;2023-02-28T09:55:19;9.70;54.60
18085;DHT22;9169;44.492;11.372;2023-02-28T09:57:49;9.80;54.90
18085;DHT22;9169;44.492;11.372;2023-02-28T10:00:21;9.90;55.20
18085;DHT22;9169;44.492;11.372;2023-02-28T10:03:25;10.00;54.40
18085;DHT22;9169;44.492;11.372;2023-02-28T10:06:00;10.10;54.20
18085;DHT22;9169;44.492;11.372;2023-02-28T10:08:36;10.20;54.20
18085;DHT22;9169;44.492;11.372;2023-02-28T10:11:13;10.20;53.90
18085;DHT22;9169;44.492;11.372;2023-02-28T10:13:50;10.20;53.80
18085;DHT22;9169;44.492;11.372;2023-02-28T10:16:25;10.30;53.60
18085;DHT22;9169;44.492;11.372;2023-02-28T10:18:57;10.30;53.40
18085;DHT22;9169;44.492;11.372;2023-02-28T10:21:30;10.30;53.30
18085;DHT22;9169;44.492;11.372;2023-02-28T10:24:05;10.30;53.10
18085;DHT22;9169;44.492;11.372;2023-02-28T10:26:43;10.30;53.00
18085;DHT22;9169;44.492;11.372;2023-02-28T10:29:13;10.30;52.80
18085;DHT22;9169;44.492;11.372;2023-02-28T10:31:42;10.30;52.80
18085;DHT22;9169;44.492;11.372;2023-02-28T10:34:12;10.30;52.60
18085;DHT22;9169;44.492;11.372;2023-02-28T10:36:41;10.30;52.60
18085;DHT22;9169;44.492;11.372;2023-02-28T10:39:33;10.30;52.70
18085;DHT22;9169;44.492;11.372;2023-02-28T10:42:04;10.30;52.50
18085;DHT22;9169;44.492;11.372;2023-02-28T10:44:33;10.30;52.50
18085;DHT22;9169;44.492;11.372;2023-02-28T10:47:02;10.30;52.50
18085;DHT22;9169;44.492;11.372;2023-02-28T10:49:30;10.30;52.40
18085;DHT22;9169;44.492;11.372;2023-02-28T10:52:00;10.30;52.20
18085;DHT22;9169;44.492;11.372;2023-02-28T10:54:31;10.30;52.10
18085;DHT22;9169;44.492;11.372;2023-02-28T10:57:18;10.20;52.00
18085;DHT22;9169;44.492;11.372;2023-02-28T10:59:50;10.10;51.90
18085;DHT22;9169;44.492;11.372;2023-02-28T11:02:30;10.10;52.00
18085;DHT22;9169;44.492;11.372;2023-02-28T11:05:00;10.10;52.20
18085;DHT22;9169;44.492;11.372;2023-02-28T11:07:29;10.10;52.40
18085;DHT22;9169;44.492;11.372;2023-02-28T11:10:18;10.20;52.50
18085;DHT22;9169;44.492;11.372;2023-02-28T11:12:49;10.20;52.50
18085;DHT22;9169;44.492;11.372;2023-02-28T11:15:23;10.20;52.60
18085;DHT22;9169;44.492;11.372;2023-02-28T11:17:58;10.10;52.30
18085;DHT22;9169;44.492;11.372;2023-02-28T11:20:29;10.10;52.40
18085;DHT22;9169;44.492;11.372;2023-02-28T11:23:01;10.20;52.50
18085;DHT22;9169;44.492;11.372;2023-02-28T11:25:33;10.10;52.20
18085;DHT22;9169;44.492;11.372;2023-02-28T11:28:05;10.20;52.30
18085;DHT22;9169;44.492;11.372;2023-02-28T11:30:36;10.20;52.30
18085;DHT22;9169;44.492;11.372;2023-02-28T11:33:27;10.20;52.40
18085;DHT22;9169;44.492;11.372;2023-02-28T11:35:58;10.20;52.20
18085;DHT22;9169;44.492;11.372;2023-02-28T11:38:29;10.20;52.20
18085;DHT22;9169;44.492;11.372;2023-02-28T11:41:09;10.10;52.00
18085;DHT22;9169;44.492;11.372;2023-02-28T11:43:57;10.10;51.90
18085;DHT22;9169;44.492;11.372;2023-02-28T11:46:32;10.10;52.60
18085;DHT22;9169;44.492;11.372;2023-02-28T11:49:12;10.10;52.20
18085;DHT22;9169;44.492;11.372;2023-02-28T11:51:49;10.20;52.40
18085;DHT22;9169;44.492;11.372;2023-02-28T11:54:28;10.20;52.30
18085;DHT22;9169;44.492;11.372;2023-02-28T11:57:14;10.20;52.00
18085;DHT22;9169;44.492;11.372;2023-02-28T11:59:56;10.20;51.80
18085;DHT22;9169;44.492;11.372;2023-02-28T12:02:52;10.20;52.00
18085;DHT22;9169;44.492;11.372;2023-02-28T12:05:30;10.20;52.00
18085;DHT22;9169;44.492;11.372;2023-02-28T12:08:19;10.20;51.90
18085;DHT22;9169;44.492;11.372;2023-02-28T12:11:00;10.10;51.60
18085;DHT22;9169;44.492;11.372;2023-02-28T12:13:40;10.10;52.20
18085;DHT22;9169;44.492;11.372;2023-02-28T12:19:16;10.10;51.70
18085;DHT22;9169;44.492;11.372;2023-02-28T12:22:03;10.10;51.70
18085;DHT22;9169;44.492;11.372;2023-02-28T12:24:54;10.10;51.80
18085;DHT22;9169;44.492;11.372;2023-02-28T12:27:30;10.20;51.90
18085;DHT22;9169;44.492;11.372;2023-02-28T12:30:03;10.20;51.70
18085;DHT22;9169;44.492;11.372;2023-02-28T12:32:38;10.10;51.50
18085;DHT22;9169;44.492;11.372;2023-02-28T12:35:12;10.10;51.60
18085;DHT22;9169;44.492;11.372;2023-02-28T12:37:44;10.20;51.70
18085;DHT22;9169;44.492;11.372;2023-02-28T12:40:19;10.20;51.70
18085;DHT22;9169;44.492;11.372;2023-02-28T12:42:51;10.20;51.80
18085;DHT22;9169;44.492;11.372;2023-02-28T12:45:23;10.20;51.60
18085;DHT22;9169;44.492;11.372;2023-02-28T12:47:58;10.10;51.40
18085;DHT22;9169;44.492;11.372;2023-02-28T12:50:30;10.10;51.50
18085;DHT22;9169;44.492;11.372;2023-02-28T12:53:02;10.10;51.50
18085;DHT22;9169;44.492;11.372;2023-02-28T12:55:38;10.10;51.50
18085;DHT22;9169;44.492;11.372;2023-02-28T12:58:14;10.10;51.50
18085;DHT22;9169;44.492;11.372;2023-02-28T13:01:02;10.10;51.30
18085;DHT22;9169;44.492;11.372;2023-02-28T13:03:49;10.10;51.40
18085;DHT22;9169;44.492;11.372;2023-02-28T13:06:33;10.10;51.40
18085;DHT22;9169;44.492;11.372;2023-02-28T13:09:11;10.10;51.40
18085;DHT22;9169;44.492;11.372;2023-02-28T13:11:43;10.10;51.40
18085;DHT22;9169;44.492;11.372;2023-02-28T13:14:22;10.00;51.30
18085;DHT22;9169;44.492;11.372;2023-02-28T13:17:03;10.00;51.40
18085;DHT22;9169;44.492;11.372;2023-02-28T13:19:44;10.00;51.30
18085;DHT22;9169;44.492;11.372;2023-02-28T13:22:19;10.00;51.30
18085;DHT22;9169;44.492;11.372;2023-02-28T13:24:49;10.00;51.40
18085;DHT22;9169;44.492;11.372;2023-02-28T13:27:37;10.10;51.50
18085;DHT22;9169;44.492;11.372;2023-02-28T13:33:24;10.10;51.50
18085;DHT22;9169;44.492;11.372;2023-02-28T13:36:09;10.10;51.50
18085;DHT22;9169;44.492;11.372;2023-02-28T13:38:42;10.10;51.40
18085;DHT22;9169;44.492;11.372;2023-02-28T13:41:46;10.20;51.60
18085;DHT22;9169;44.492;11.372;2023-02-28T13:44:18;10.20;51.60
18085;DHT22;9169;44.492;11.372;2023-02-28T13:47:22;10.20;51.50
18085;DHT22;9169;44.492;11.372;2023-02-28T13:49:52;10.20;51.50
18085;DHT22;9169;44.492;11.372;2023-02-28T13:52:24;10.30;51.60
18085;DHT22;9169;44.492;11.372;2023-02-28T13:55:22;10.30;51.60
18085;DHT22;9169;44.492;11.372;2023-02-28T13:58:18;10.30;51.40
18085;DHT22;9169;44.492;11.372;2023-02-28T14:01:08;10.20;51.40
18085;DHT22;9169;44.492;11.372;2023-02-28T14:04:02;10.30;51.50
18085;DHT22;9169;44.492;11.372;2023-02-28T14:06:38;10.30;51.50
18085;DHT22;9169;44.492;11.372;2023-02-28T14:09:21;10.30;51.30
18085;DHT22;9169;44.492;11.372;2023-02-28T14:11:52;10.30;51.50
18085;DHT22;9169;44.492;11.372;2023-02-28T14:14:55;10.30;51.60
18085;DHT22;9169;44.492;11.372;2023-02-28T14:17:26;10.30;51.40
18085;DHT22;9169;44.492;11.372;2023-02-28T14:19:56;10.30;51.50
18085;DHT22;9169;44.492;11.372;2023-02-28T14:22:45;10.30;51.60
18085;DHT22;9169;44.492;11.372;2023-02-28T14:25:22;10.40;51.70
18085;DHT22;9169;44.492;11.372;2023-02-28T14:28:01;10.40;51.60
18085;DHT22;9169;44.492;11.372;2023-02-28T14:30:49;10.40;51.50
18085;DHT22;9169;44.492;11.372;2023-02-28T14:33:25;10.30;51.40
18085;DHT22;9169;44.492;11.372;2023-02-28T14:36:07;10.50;51.60
18085;DHT22;9169;44.492;11.372;2023-02-28T14:38:40;10.50;51.60
18085;DHT22;9169;44.492;11.372;2023-02-28T14:41:21;10.50;51.70
18085;DHT22;9169;44.492;11.372;2023-02-28T14:43:54;10.50;51.70
18085;DHT22;9169;44.492;11.372;2023-02-28T14:46:26;10.50;51.40
18085;DHT22;9169;44.492;11.372;2023-02-28T14:48:57;10.50;51.40
18085;DHT22;9169;44.492;11.372;2023-02-28T14:51:27;10.50;51.20
18085;DHT22;9169;44.492;11.372;2023-02-28T14:53:58;10.40;51.10
18085;DHT22;9169;44.492;11.372;2023-02-28T14:56:32;10.40;51.30
18085;DHT22;9169;44.492;11.372;2023-02-28T14:59:05;10.40;51.30
18085;DHT22;9169;44.492;11.372;2023-02-28T15:01:34;10.40;51.40
18085;DHT22;9169;44.492;11.372;2023-02-28T15:04:05;10.40;51.60
18085;DHT22;9169;44.492;11.372;2023-02-28T15:06:34;10.40;51.70
18085;DHT22;9169;44.492;11.372;2023-02-28T15:09:13;10.40;51.70
18085;DHT22;9169;44.492;11.372;2023-02-28T15:11:46;10.40;51.70
18085;DHT22;9169;44.492;11.372;2023-02-28T15:14:19;10.40;51.80
18085;DHT22;9169;44.492;11.372;2023-02-28T15:16:51;10.40;51.90
18085;DHT22;9169;44.492;11.372;2023-02-28T15:19:22;10.50;52.10
18085;DHT22;9169;44.492;11.372;2023-02-28T15:21:55;10.60;52.30
18085;DHT22;9169;44.492;11.372;2023-02-28T15:24:31;10.60;52.20
18085;DHT22;9169;44.492;11.372;2023-02-28T15:27:04;10.60;52.10
18085;DHT22;9169;44.492;11.372;2023-02-28T15:29:43;10.50;52.00
18085;DHT22;9169;44.492;11.372;2023-02-28T15:32:24;10.60;52.10
18085;DHT22;9169;44.492;11.372;2023-02-28T15:34:56;10.50;51.80
18085;DHT22;9169;44.492;11.372;2023-02-28T15:37:33;10.50;51.70
18085;DHT22;9169;44.492;11.372;2023-02-28T15:40:13;10.40;51.60
18085;DHT22;9169;44.492;11.372;2023-02-28T15:42:58;10.40;51.70
18085;DHT22;9169;44.492;11.372;2023-02-28T15:45:33;10.40;51.70
18085;DHT22;9169;44.492;11.372;2023-02-28T15:48:10;10.30;51.70
18085;DHT22;9169;44.492;11.372;2023-02-28T15:50:47;10.30;51.80
18085;DHT22;9169;44.492;11.372;2023-02-28T15:53:20;10.40;51.90
18085;DHT22;9169;44.492;11.372;2023-02-28T15:55:55;10.40;52.00
18085;DHT22;9169;44.492;11.372;2023-02-28T15:58:28;10.40;52.00
18085;DHT22;9169;44.492;11.372;2023-02-28T16:01:06;10.30;52.00
18085;DHT22;9169;44.492;11.372;2023-02-28T16:03:44;10.30;52.00
18085;DHT22;9169;44.492;11.372;2023-02-28T16:06:33;10.30;52.00
18085;DHT22;9169;44.492;11.372;2023-02-28T16:09:03;10.30;52.00
18085;DHT22;9169;44.492;11.372;2023-02-28T16:11:33;10.30;52.00
18085;DHT22;9169;44.492;11.372;2023-02-28T16:14:03;10.30;51.90
18085;DHT22;9169;44.492;11.372;2023-02-28T16:16:33;10.30;52.00
18085;DHT22;9169;44.492;11.372;2023-02-28T16:19:02;10.30;52.00
18085;DHT22;9169;44.492;11.372;2023-02-28T16:21:30;10.30;52.00
18085;DHT22;9169;44.492;11.372;2023-02-28T16:23:59;10.20;52.00
18085;DHT22;9169;44.492;11.372;2023-02-28T16:26:27;10.30;52.00
18085;DHT22;9169;44.492;11.372;2023-02-28T16:28:56;10.20;52.00
18085;DHT22;9169;44.492;11.372;2023-02-28T16:31:26;10.30;52.10